createdAt,value
2024-04-15T00:00:18.658Z,20.49
2024-04-15T00:02:45.576Z,20.50
2024-04-15T00:05:15.076Z,20.48
2024-04-15T00:07:41.968Z,20.48
2024-04-15T00:10:11.788Z,20.47
2024-04-15T00:12:38.708Z,20.46
2024-04-15T00:15:11.177Z,20.45
2024-04-15T00:17:38.065Z,20.44
2024-04-15T00:20:08.090Z,20.42
2024-04-15T00:22:34.991Z,20.40
2024-04-15T00:25:04.613Z,20.40
2024-04-15T00:27:31.530Z,20.39
2024-04-15T00:30:00.973Z,20.38
2024-04-15T00:32:30.439Z,20.37
2024-04-15T00:34:59.998Z,20.37
2024-04-15T00:37:26.918Z,20.36
2024-04-15T00:39:56.683Z,20.35
2024-04-15T00:42:24.224Z,20.35
2024-04-15T00:44:54.659Z,20.34
2024-04-15T00:47:21.549Z,20.33
2024-04-15T00:49:54.382Z,20.32
2024-04-15T00:52:21.879Z,20.31
2024-04-15T00:54:51.603Z,20.31
2024-04-15T00:57:18.579Z,20.30
2024-04-15T00:59:49.215Z,20.29
2024-04-15T01:02:16.142Z,20.29
2024-04-15T01:04:45.722Z,20.28
2024-04-15T01:07:15.357Z,20.28
2024-04-15T01:09:44.885Z,20.27
2024-04-15T01:12:11.999Z,20.27
2024-04-15T01:14:41.411Z,20.25
2024-04-15T01:17:08.335Z,20.25
2024-04-15T01:19:37.751Z,20.24
2024-04-15T01:22:08.446Z,20.23
2024-04-15T01:24:42.698Z,20.21
2024-04-15T01:27:09.571Z,20.20
2024-04-15T01:29:38.976Z,20.21
2024-04-15T01:32:06.835Z,20.19
2024-04-15T01:34:36.398Z,20.19
2024-04-15T01:37:03.488Z,20.18
2024-04-15T01:39:32.890Z,20.17
2024-04-15T01:42:02.356Z,20.15
2024-04-15T01:44:32.650Z,20.14
2024-04-15T01:46:59.506Z,20.15
2024-04-15T01:49:29.051Z,20.13
2024-04-15T01:51:55.965Z,20.13
2024-04-15T01:54:25.340Z,20.13
2024-04-15T01:56:52.219Z,20.12
2024-04-15T01:59:24.346Z,20.11
2024-04-15T02:01:51.106Z,20.11
2024-04-15T02:04:20.600Z,20.11
2024-04-15T02:06:47.479Z,20.10
2024-04-15T02:09:16.930Z,20.09
2024-04-15T02:11:43.816Z,20.09
2024-04-15T02:14:13.339Z,20.07
2024-04-15T02:16:42.777Z,20.08
2024-04-15T02:19:12.215Z,20.07
2024-04-15T02:21:39.139Z,20.06
2024-04-15T02:24:09.146Z,20.06
2024-04-15T02:26:35.964Z,20.04
2024-04-15T02:29:05.365Z,20.04
2024-04-15T02:31:32.358Z,20.03
2024-04-15T02:34:04.427Z,20.03
2024-04-15T02:36:31.374Z,20.02
2024-04-15T02:39:00.792Z,20.01
2024-04-15T02:41:27.615Z,20.01
2024-04-15T02:43:56.992Z,20.00
2024-04-15T02:46:23.889Z,19.99
2024-04-15T02:48:53.332Z,19.99
2024-04-15T02:51:22.824Z,19.99
2024-04-15T02:53:52.208Z,19.96
2024-04-15T02:56:19.058Z,19.97
2024-04-15T02:58:48.488Z,19.96
2024-04-15T03:01:19.197Z,19.96
2024-04-15T03:03:49.116Z,19.96
2024-04-15T03:06:22.575Z,19.95
2024-04-15T03:08:52.228Z,19.93
2024-04-15T03:11:19.082Z,19.93
2024-04-15T03:13:50.876Z,19.93
2024-04-15T03:16:25.354Z,19.92
2024-04-15T03:18:56.963Z,19.92
2024-04-15T03:21:26.546Z,19.92
2024-04-15T03:23:56.480Z,19.92
2024-04-15T03:26:23.425Z,19.90
2024-04-15T03:28:52.779Z,19.90
2024-04-15T03:31:20.117Z,19.89
2024-04-15T03:33:49.599Z,19.88
2024-04-15T03:36:16.455Z,19.88
2024-04-15T03:38:48.583Z,19.89
2024-04-15T03:41:18.032Z,19.87
2024-04-15T03:43:47.759Z,19.86
2024-04-15T03:46:14.695Z,19.85
2024-04-15T03:48:44.230Z,19.85
2024-04-15T03:51:11.088Z,19.84
2024-04-15T03:53:40.564Z,19.85
2024-04-15T03:56:10.175Z,19.83
2024-04-15T03:58:39.672Z,19.83
2024-04-15T04:01:06.688Z,19.81
2024-04-15T04:03:36.244Z,19.82
2024-04-15T04:06:11.080Z,19.82
2024-04-15T04:08:41.903Z,19.81
2024-04-15T04:11:11.418Z,19.80
2024-04-15T04:13:41.045Z,19.79
2024-04-15T04:16:12.898Z,19.79
2024-04-15T04:18:42.534Z,19.79
2024-04-15T04:21:10.966Z,19.78
2024-04-15T04:23:40.681Z,19.77
2024-04-15T04:26:07.524Z,19.76
2024-04-15T04:28:39.596Z,19.75
2024-04-15T04:31:06.900Z,19.76
2024-04-15T04:33:36.562Z,19.75
2024-04-15T04:36:03.793Z,19.76
2024-04-15T04:38:33.256Z,19.75
2024-04-15T04:41:03.686Z,19.74
2024-04-15T04:43:30.501Z,19.74
2024-04-15T04:46:11.354Z,19.73
2024-04-15T04:48:38.345Z,19.73
2024-04-15T04:51:08.428Z,19.73
2024-04-15T04:53:35.725Z,19.72
2024-04-15T04:56:10.113Z,19.71
2024-04-15T04:58:37.166Z,19.72
2024-04-15T05:01:17.215Z,19.71
2024-04-15T05:03:45.509Z,19.71
2024-04-15T05:06:16.285Z,19.71
2024-04-15T05:08:45.080Z,19.71
2024-04-15T05:11:15.460Z,19.71
2024-04-15T05:13:42.316Z,19.71
2024-04-15T05:16:15.723Z,19.71
2024-04-15T05:18:44.629Z,19.72
2024-04-15T05:21:17.606Z,19.75
2024-04-15T05:23:44.961Z,19.77
2024-04-15T05:26:14.803Z,19.78
2024-04-15T05:28:41.625Z,19.82
2024-04-15T05:31:11.133Z,19.83
2024-04-15T05:33:40.868Z,19.84
2024-04-15T05:36:10.511Z,19.84
2024-04-15T05:38:37.468Z,19.81
2024-04-15T05:41:07.212Z,19.82
2024-04-15T05:43:34.046Z,19.78
2024-04-15T05:46:05.485Z,19.76
2024-04-15T05:48:32.842Z,19.74
2024-04-15T05:51:05.025Z,19.71
2024-04-15T05:53:31.928Z,19.70
2024-04-15T05:56:01.358Z,19.69
2024-04-15T05:58:28.402Z,19.68
2024-04-15T06:00:57.941Z,19.69
2024-04-15T06:03:24.845Z,19.67
2024-04-15T06:05:54.419Z,19.67
2024-04-15T06:08:23.899Z,19.67
2024-04-15T06:10:53.576Z,19.65
2024-04-15T06:13:20.866Z,19.63
2024-04-15T06:15:50.494Z,19.62
2024-04-15T06:18:18.438Z,19.62
2024-04-15T06:20:47.851Z,19.61
2024-04-15T06:23:15.029Z,19.61
2024-04-15T06:25:47.119Z,19.59
2024-04-15T06:28:13.980Z,19.60
2024-04-15T06:30:43.421Z,19.59
2024-04-15T06:33:10.299Z,19.58
2024-04-15T06:35:39.829Z,19.59
2024-04-15T06:38:06.676Z,19.59
2024-04-15T06:40:36.150Z,19.60
2024-04-15T06:43:07.542Z,19.61
2024-04-15T06:45:37.191Z,19.61
2024-04-15T06:48:05.158Z,19.63
2024-04-15T06:50:34.580Z,19.68
2024-04-15T06:53:05.188Z,19.76
2024-04-15T06:55:34.597Z,19.82
2024-04-15T06:58:01.539Z,19.84
2024-04-15T07:00:33.742Z,19.88
2024-04-15T07:03:00.708Z,19.91
2024-04-15T07:05:30.171Z,19.90
2024-04-15T07:07:57.153Z,19.93
2024-04-15T07:10:27.268Z,19.91
2024-04-15T07:12:54.278Z,19.85
2024-04-15T07:15:23.968Z,19.81
2024-04-15T07:17:53.394Z,19.78
2024-04-15T07:20:22.983Z,19.78
2024-04-15T07:22:49.794Z,19.79
2024-04-15T07:25:20.071Z,19.78
2024-04-15T07:27:47.023Z,19.77
2024-04-15T07:30:16.753Z,19.76
2024-04-15T07:32:45.895Z,19.75
2024-04-15T07:35:19.053Z,19.74
2024-04-15T07:37:46.518Z,19.73
2024-04-15T07:40:16.363Z,19.73
2024-04-15T07:42:44.966Z,19.78
2024-04-15T07:45:15.050Z,19.80
2024-04-15T07:47:42.086Z,19.77
2024-04-15T07:50:11.860Z,19.75
2024-04-15T07:52:41.496Z,19.74
2024-04-15T07:55:11.675Z,19.73
2024-04-15T07:57:38.671Z,19.72
2024-04-15T08:00:10.345Z,19.72
2024-04-15T08:02:37.341Z,19.73
2024-04-15T08:05:07.349Z,19.74
2024-04-15T08:07:34.235Z,19.73
2024-04-15T08:10:06.402Z,19.73
2024-04-15T08:12:33.216Z,19.76
2024-04-15T08:15:02.714Z,19.75
2024-04-15T08:17:29.504Z,19.71
2024-04-15T08:19:58.917Z,19.68
2024-04-15T08:22:25.807Z,19.70
2024-04-15T08:24:55.300Z,19.70
2024-04-15T08:27:25.383Z,19.72
2024-04-15T08:29:55.208Z,19.74
2024-04-15T08:32:22.058Z,19.78
2024-04-15T08:34:51.470Z,19.81
2024-04-15T08:37:19.158Z,19.83
2024-04-15T08:39:48.790Z,19.83
2024-04-15T08:42:22.933Z,19.80
2024-04-15T08:44:55.555Z,19.75
2024-04-15T08:47:28.533Z,19.75
2024-04-15T08:49:58.087Z,19.76
2024-04-15T08:52:25.312Z,19.74
2024-04-15T08:54:55.870Z,19.72
2024-04-15T08:57:23.255Z,19.70
2024-04-15T08:59:56.547Z,19.69
2024-04-15T09:02:23.459Z,19.68
2024-04-15T09:04:57.287Z,19.70
2024-04-15T09:07:25.995Z,19.67
2024-04-15T09:09:55.483Z,19.69
2024-04-15T09:12:22.328Z,19.68
2024-04-15T09:14:52.435Z,19.67
2024-04-15T09:17:22.261Z,19.74
2024-04-15T09:19:52.634Z,19.81
2024-04-15T09:22:19.552Z,19.79
2024-04-15T09:24:49.045Z,19.81
2024-04-15T09:27:16.338Z,19.87
2024-04-15T09:29:49.539Z,19.84
2024-04-15T09:32:18.741Z,19.81
2024-04-15T09:34:55.738Z,19.77
2024-04-15T09:37:23.082Z,19.78
2024-04-15T09:39:54.211Z,19.80
2024-04-15T09:42:21.752Z,19.79
2024-04-15T09:44:52.218Z,19.77
2024-04-15T09:47:19.659Z,19.83
2024-04-15T09:49:52.275Z,19.90
2024-04-15T09:52:24.023Z,19.97
2024-04-15T09:54:55.131Z,19.98
2024-04-15T09:57:24.990Z,19.90
2024-04-15T09:59:59.936Z,19.86
2024-04-15T10:02:28.180Z,19.84
2024-04-15T10:05:03.665Z,19.87
2024-04-15T10:07:31.083Z,19.92
2024-04-15T10:10:01.965Z,19.96
2024-04-15T10:12:30.087Z,19.95
2024-04-15T10:15:00.266Z,19.91
2024-04-15T10:17:28.080Z,19.94
2024-04-15T10:20:11.487Z,20.03
2024-04-15T10:22:39.314Z,20.08
2024-04-15T10:25:11.779Z,20.04
2024-04-15T10:27:39.058Z,19.98
2024-04-15T10:30:15.424Z,19.92
2024-04-15T10:32:44.521Z,19.91
2024-04-15T10:35:25.710Z,19.88
2024-04-15T10:37:52.749Z,19.85
2024-04-15T10:40:23.463Z,19.84
2024-04-15T10:42:50.405Z,19.83
2024-04-15T10:45:21.699Z,19.83
2024-04-15T10:47:48.470Z,19.82
2024-04-15T10:50:18.242Z,19.77
2024-04-15T10:52:47.797Z,19.76
2024-04-15T10:55:17.572Z,19.78
2024-04-15T10:57:45.776Z,19.75
2024-04-15T11:00:17.128Z,19.78
2024-04-15T11:02:46.331Z,19.81
2024-04-15T11:05:17.189Z,19.83
2024-04-15T11:07:48.289Z,19.87
2024-04-15T11:10:18.864Z,19.86
2024-04-15T11:12:47.288Z,19.83
2024-04-15T11:15:19.850Z,19.78
2024-04-15T11:17:47.041Z,19.76
2024-04-15T11:20:16.840Z,19.75
2024-04-15T11:22:44.075Z,19.74
2024-04-15T11:25:17.088Z,19.74
2024-04-15T11:27:47.725Z,19.76
2024-04-15T11:30:22.199Z,19.81
2024-04-15T11:32:49.711Z,19.87
2024-04-15T11:35:19.329Z,19.88
2024-04-15T11:37:52.582Z,19.88
2024-04-15T11:40:24.885Z,19.93
2024-04-15T11:42:52.610Z,19.99
2024-04-15T11:45:22.042Z,19.98
2024-04-15T11:47:52.751Z,19.95
2024-04-15T11:50:22.530Z,19.94
2024-04-15T11:52:49.808Z,19.88
2024-04-15T11:55:21.125Z,19.86
2024-04-15T11:57:51.063Z,19.90
2024-04-15T12:00:21.393Z,19.97
2024-04-15T12:02:48.651Z,19.98
2024-04-15T12:05:18.225Z,20.01
2024-04-15T12:07:45.315Z,20.00
2024-04-15T12:10:16.416Z,19.99
2024-04-15T12:12:43.687Z,20.00
2024-04-15T12:15:15.695Z,19.99
2024-04-15T12:17:42.651Z,19.98
2024-04-15T12:20:13.165Z,19.98
2024-04-15T12:22:42.632Z,20.04
2024-04-15T12:25:11.042Z,20.11
2024-04-15T12:27:45.154Z,20.12
2024-04-15T12:30:15.573Z,20.10
2024-04-15T12:32:45.230Z,20.09
2024-04-15T12:35:12.524Z,20.10
2024-04-15T12:37:42.252Z,20.09
2024-04-15T12:40:11.636Z,20.09
2024-04-15T12:42:41.188Z,20.13
2024-04-15T12:45:08.119Z,20.25
2024-04-15T12:47:40.587Z,20.31
2024-04-15T12:50:08.476Z,20.24
2024-04-15T12:52:40.696Z,20.15
2024-04-15T12:55:07.857Z,20.15
2024-04-15T12:57:37.812Z,20.14
2024-04-15T13:00:06.220Z,20.11
2024-04-15T13:02:39.631Z,20.13
2024-04-15T13:05:09.355Z,20.15
2024-04-15T13:07:38.920Z,20.18
2024-04-15T13:10:06.973Z,20.22
2024-04-15T13:12:36.480Z,20.20
2024-04-15T13:15:03.615Z,20.20
2024-04-15T13:17:33.124Z,20.17
2024-04-15T13:20:00.024Z,20.17
2024-04-15T13:22:32.378Z,20.16
2024-04-15T13:24:59.373Z,20.17
2024-04-15T13:27:28.885Z,20.23
2024-04-15T13:29:55.778Z,20.18
2024-04-15T13:32:25.711Z,20.16
2024-04-15T13:34:54.969Z,20.13
2024-04-15T13:37:25.029Z,20.14
2024-04-15T13:39:54.646Z,20.15
2024-04-15T13:42:24.184Z,20.15
2024-04-15T13:44:51.085Z,20.17
2024-04-15T13:47:20.554Z,20.15
2024-04-15T13:49:47.325Z,20.11
2024-04-15T13:52:16.868Z,20.10
2024-04-15T13:54:44.676Z,20.15
2024-04-15T13:57:16.809Z,20.22
2024-04-15T13:59:43.628Z,20.30
2024-04-15T14:02:14.039Z,20.26
2024-04-15T14:04:41.616Z,20.27
2024-04-15T14:07:11.346Z,20.27
2024-04-15T14:09:38.195Z,20.27
2024-04-15T14:12:07.966Z,20.24
2024-04-15T14:14:38.431Z,20.24
2024-04-15T14:17:12.918Z,20.24
2024-04-15T14:19:40.030Z,20.26
2024-04-15T14:22:09.519Z,20.27
2024-04-15T14:24:36.388Z,20.25
2024-04-15T14:27:06.416Z,20.23
2024-04-15T14:29:33.553Z,20.21
2024-04-15T14:32:05.935Z,20.20
2024-04-15T14:34:33.931Z,20.21
2024-04-15T14:37:04.619Z,20.20
2024-04-15T14:39:31.600Z,20.20
2024-04-15T14:42:01.473Z,20.18
2024-04-15T14:44:28.433Z,20.18
2024-04-15T14:46:57.996Z,20.18
2024-04-15T14:49:28.896Z,20.17
2024-04-15T14:51:58.734Z,20.17
2024-04-15T14:54:25.735Z,20.17
2024-04-15T14:56:56.798Z,20.16
2024-04-15T14:59:23.914Z,20.22
2024-04-15T15:01:53.394Z,20.29
2024-04-15T15:04:20.378Z,20.29
2024-04-15T15:06:53.126Z,20.25
2024-04-15T15:09:19.944Z,20.23
2024-04-15T15:11:49.437Z,20.21
2024-04-15T15:14:16.500Z,20.18
2024-04-15T15:16:46.088Z,20.18
2024-04-15T15:19:12.981Z,20.18
2024-04-15T15:21:42.448Z,20.18
2024-04-15T15:24:11.864Z,20.16
2024-04-15T15:26:41.881Z,20.16
2024-04-15T15:29:12.523Z,20.15
2024-04-15T15:31:42.220Z,20.13
2024-04-15T15:34:09.038Z,20.14
2024-04-15T15:36:38.514Z,20.13
2024-04-15T15:39:07.949Z,20.13
2024-04-15T15:41:40.388Z,20.13
2024-04-15T15:44:07.312Z,20.12
2024-04-15T15:46:36.851Z,20.12
2024-04-15T15:49:03.894Z,20.11
2024-04-15T15:51:37.040Z,20.10
2024-04-15T15:54:04.099Z,20.12
2024-04-15T15:56:33.930Z,20.10
2024-04-15T15:59:03.844Z,20.09
2024-04-15T16:01:34.838Z,20.10
2024-04-15T16:04:01.881Z,20.08
2024-04-15T16:06:31.406Z,20.09
2024-04-15T16:08:58.387Z,20.10
2024-04-15T16:11:35.646Z,20.09
2024-04-15T16:14:11.793Z,20.11
2024-04-15T16:16:41.456Z,20.11
2024-04-15T16:19:10.446Z,20.11
2024-04-15T16:21:40.539Z,20.10
2024-04-15T16:24:08.139Z,20.10
2024-04-15T16:26:38.086Z,20.10
2024-04-15T16:29:05.578Z,20.06
2024-04-15T16:31:38.108Z,20.05
2024-04-15T16:34:05.652Z,20.04
2024-04-15T16:36:35.767Z,20.04
2024-04-15T16:39:02.694Z,20.06
2024-04-15T16:41:32.216Z,20.06
2024-04-15T16:43:59.088Z,20.07
2024-04-15T16:46:28.627Z,20.07
2024-04-15T16:48:58.258Z,20.07
2024-04-15T16:51:27.756Z,20.07
2024-04-15T16:53:54.606Z,20.05
2024-04-15T16:56:24.078Z,20.06
2024-04-15T16:58:51.009Z,20.05
2024-04-15T17:01:20.512Z,20.04
2024-04-15T17:03:47.544Z,20.04
2024-04-15T17:06:19.740Z,20.02
2024-04-15T17:08:46.794Z,20.01
2024-04-15T17:11:16.303Z,20.01
2024-04-15T17:13:43.157Z,19.99
2024-04-15T17:16:13.273Z,19.99
2024-04-15T17:18:40.513Z,19.98
2024-04-15T17:21:09.997Z,19.98
2024-04-15T17:23:39.694Z,19.95
2024-04-15T17:26:09.747Z,19.94
2024-04-15T17:28:36.607Z,19.92
2024-04-15T17:31:06.448Z,19.92
2024-04-15T17:33:33.483Z,19.91
2024-04-15T17:36:03.254Z,19.92
2024-04-15T17:38:30.217Z,19.91
2024-04-15T17:41:02.283Z,19.90
2024-04-15T17:43:29.246Z,19.88
2024-04-15T17:45:59.908Z,19.87
2024-04-15T17:48:27.537Z,19.85
2024-04-15T17:50:56.980Z,19.85
2024-04-15T17:53:24.346Z,19.85
2024-04-15T17:55:54.017Z,19.84
2024-04-15T17:58:23.576Z,19.82
2024-04-15T18:00:53.146Z,19.81
2024-04-15T18:03:20.109Z,19.80
2024-04-15T18:05:49.587Z,19.79
2024-04-15T18:08:16.439Z,19.77
2024-04-15T18:10:45.906Z,19.77
2024-04-15T18:13:13.150Z,19.76
2024-04-15T18:15:46.320Z,19.75
2024-04-15T18:18:15.358Z,19.75
2024-04-15T18:20:45.754Z,19.73
2024-04-15T18:23:12.637Z,19.74
2024-04-15T18:25:42.622Z,19.73
2024-04-15T18:28:10.392Z,19.72
2024-04-15T18:30:39.831Z,19.72
2024-04-15T18:33:09.638Z,19.70
2024-04-15T18:35:39.470Z,19.70
2024-04-15T18:38:06.448Z,19.69
2024-04-15T18:40:36.117Z,19.70
2024-04-15T18:43:03.403Z,19.70
2024-04-15T18:45:32.881Z,19.69
2024-04-15T18:48:01.545Z,19.71
2024-04-15T18:50:33.913Z,19.71
2024-04-15T18:53:01.262Z,19.72
2024-04-15T18:55:31.694Z,19.72
2024-04-15T18:57:58.891Z,19.72
2024-04-15T19:00:28.536Z,19.71
2024-04-15T19:02:55.496Z,19.70
2024-04-15T19:05:25.255Z,19.69
2024-04-15T19:07:54.712Z,19.70
2024-04-15T19:10:24.258Z,19.70
2024-04-15T19:12:52.166Z,19.68
2024-04-15T19:15:23.299Z,19.67
2024-04-15T19:17:50.336Z,19.68
2024-04-15T19:20:21.362Z,19.68
2024-04-15T19:22:48.235Z,19.66
2024-04-15T19:25:20.553Z,19.66
2024-04-15T19:27:47.488Z,19.66
2024-04-15T19:30:16.969Z,19.64
2024-04-15T19:32:43.924Z,19.64
2024-04-15T19:35:13.425Z,19.64
2024-04-15T19:37:40.449Z,19.61
2024-04-15T19:40:12.507Z,19.62
2024-04-15T19:42:42.002Z,19.62
2024-04-15T19:45:12.243Z,19.61
2024-04-15T19:47:39.470Z,19.60
2024-04-15T19:50:09.782Z,19.58
2024-04-15T19:52:36.652Z,19.57
2024-04-15T19:55:06.837Z,19.58
2024-04-15T19:57:34.081Z,19.57
2024-04-15T20:00:06.566Z,19.56
2024-04-15T20:02:34.011Z,19.54
2024-04-15T20:05:03.745Z,19.54
2024-04-15T20:07:32.093Z,19.54
2024-04-15T20:10:02.493Z,19.53
2024-04-15T20:12:32.245Z,19.53
2024-04-15T20:15:02.319Z,19.51
2024-04-15T20:17:44.441Z,19.51
2024-04-15T20:20:14.891Z,19.50
2024-04-15T20:22:44.989Z,19.48
2024-04-15T20:25:12.483Z,19.47
2024-04-15T20:27:42.296Z,19.48
2024-04-15T20:30:09.597Z,19.45
2024-04-15T20:32:43.942Z,19.45
2024-04-15T20:35:11.724Z,19.42
2024-04-15T20:37:41.599Z,19.42
2024-04-15T20:40:09.715Z,19.42
2024-04-15T20:42:40.245Z,19.42
2024-04-15T20:45:07.776Z,19.42
2024-04-15T20:47:37.342Z,19.39
2024-04-15T20:50:07.911Z,19.40
2024-04-15T20:52:37.507Z,19.38
2024-04-15T20:55:05.355Z,19.37
2024-04-15T20:57:34.901Z,19.36
2024-04-15T21:00:02.007Z,19.34
2024-04-15T21:02:31.650Z,19.34
2024-04-15T21:04:58.605Z,19.32
2024-04-15T21:07:30.800Z,19.30
2024-04-15T21:09:57.696Z,19.29
2024-04-15T21:12:27.247Z,19.28
2024-04-15T21:14:54.194Z,19.26
2024-04-15T21:17:23.783Z,19.26
2024-04-15T21:19:50.734Z,19.24
2024-04-15T21:22:20.395Z,19.21
2024-04-15T21:24:50.001Z,19.20
2024-04-15T21:27:20.427Z,19.20
2024-04-15T21:29:47.364Z,19.18
2024-04-15T21:32:16.994Z,19.17
2024-04-15T21:34:43.960Z,19.16
2024-04-15T21:37:13.856Z,19.14
2024-04-15T21:39:40.679Z,19.12
2024-04-15T21:42:12.787Z,19.11
2024-04-15T21:44:39.590Z,19.10
2024-04-15T21:47:13.255Z,19.08
2024-04-15T21:49:40.721Z,19.08
2024-04-15T21:52:10.783Z,19.05
2024-04-15T21:54:37.606Z,19.02
2024-04-15T21:57:07.878Z,19.01
2024-04-15T21:59:37.311Z,19.01
2024-04-15T22:02:06.837Z,19.00
2024-04-15T22:04:44.320Z,18.99
2024-04-15T22:07:22.980Z,18.96
2024-04-15T22:09:49.877Z,18.96
2024-04-15T22:12:19.332Z,18.94
2024-04-15T22:14:48.821Z,18.93
2024-04-15T22:17:18.396Z,18.93
2024-04-15T22:19:45.318Z,18.89
2024-04-15T22:22:14.769Z,18.88
2024-04-15T22:24:41.685Z,18.87
2024-04-15T22:27:11.171Z,18.87
2024-04-15T22:29:38.010Z,18.85
2024-04-15T22:32:10.238Z,18.85
2024-04-15T22:34:37.112Z,18.83
2024-04-15T22:37:07.098Z,18.80
2024-04-15T22:39:33.915Z,18.78
2024-04-15T22:42:03.381Z,18.79
2024-04-15T22:44:32.889Z,18.78
2024-04-15T22:46:59.802Z,18.77
2024-04-15T22:49:32.004Z,18.76
2024-04-15T22:51:58.958Z,18.75
2024-04-15T22:54:28.567Z,18.75
2024-04-15T22:56:55.446Z,18.75
2024-04-15T22:59:24.904Z,18.73
2024-04-15T23:01:51.800Z,18.72
2024-04-15T23:04:21.359Z,18.70
2024-04-15T23:06:50.794Z,18.70
2024-04-15T23:09:20.162Z,18.68
2024-04-15T23:11:47.050Z,18.67
2024-04-15T23:14:16.453Z,18.66
2024-04-15T23:16:43.677Z,18.65
2024-04-15T23:19:13.142Z,18.64
2024-04-15T23:21:40.060Z,18.63
2024-04-15T23:24:12.115Z,18.60
2024-04-15T23:26:38.932Z,18.60
2024-04-15T23:29:08.395Z,18.57
2024-04-15T23:31:35.224Z,18.55
2024-04-15T23:34:04.722Z,18.54
2024-04-15T23:36:31.602Z,18.53
2024-04-15T23:39:01.439Z,18.51
2024-04-15T23:41:30.935Z,18.51
2024-04-15T23:44:00.358Z,18.50
2024-04-15T23:46:27.270Z,18.48
2024-04-15T23:48:56.820Z,18.46
2024-04-15T23:51:23.662Z,18.44
2024-04-15T23:53:53.162Z,18.44
2024-04-15T23:56:19.982Z,18.42
2024-04-15T23:58:52.016Z,18.40
